N446MT MMMY-KMFE
Flight info
| Callsign | N446MT |
|---|---|
| Flight time | N/A |
| Altitude | 11000 |
| Route | DOTOR1A DOTOR V35 REX |
| Aircraft | BT36/L-BDFGLORY/S |
Departure
| Time | 2026-05-03 22:53 |
|---|---|
| Airport | Monterrey International Airport (MMMY) |
Arrival
| Time | N/A |
|---|---|
| Airport | McAllen Miller International Airport (KMFE) |
| Time | Latitude | Longitude | Altitude | Speed | Heading |
|---|---|---|---|---|---|
| 2026-05-03 22:47 | 25.78056 | -100.11850 | 1277 ft | 0 kts | 211° |
| 2026-05-03 22:50 | 25.78056 | -100.11849 | 1277 ft | 0 kts | 211° |
| 2026-05-03 22:50 | 25.78056 | -100.11850 | 1277 ft | 1 kts | 211° |
| 2026-05-03 22:51 | 25.78042 | -100.11862 | 1277 ft | 8 kts | 265° |
| 2026-05-03 22:51 | 25.78044 | -100.11856 | 1277 ft | 4 kts | 312° |
| 2026-05-03 22:51 | 25.78081 | -100.11833 | 1277 ft | 11 kts | 33° |
| 2026-05-03 22:51 | 25.78145 | -100.11840 | 1278 ft | 11 kts | 302° |
| 2026-05-03 22:52 | 25.78218 | -100.11843 | 1279 ft | 14 kts | 31° |
| 2026-05-03 22:52 | 25.78300 | -100.11787 | 1280 ft | 14 kts | 31° |
| 2026-05-03 22:52 | 25.78381 | -100.11730 | 1281 ft | 14 kts | 41° |
| 2026-05-03 22:52 | 25.78378 | -100.11638 | 1280 ft | 12 kts | 122° |
| 2026-05-03 22:53 | 25.78297 | -100.11496 | 1276 ft | 52 kts | 122° |
| 2026-05-03 22:53 | 25.77996 | -100.10946 | 1330 ft | 103 kts | 123° |
| 2026-05-03 22:53 | 25.77579 | -100.10202 | 1559 ft | 125 kts | 120° |
| 2026-05-03 22:53 | 25.77108 | -100.09328 | 1965 ft | 135 kts | 120° |
| 2026-05-03 22:54 | 25.76644 | -100.08414 | 2391 ft | 137 kts | 120° |
| 2026-05-03 22:54 | 25.76164 | -100.07483 | 2738 ft | 140 kts | 121° |
| 2026-05-03 22:54 | 25.75733 | -100.06525 | 3117 ft | 139 kts | 119° |
| 2026-05-03 22:54 | 25.75261 | -100.05584 | 3474 ft | 140 kts | 119° |
| 2026-05-03 22:55 | 25.74768 | -100.04649 | 3781 ft | 140 kts | 130° |
| 2026-05-03 22:55 | 25.74156 | -100.03791 | 4032 ft | 146 kts | 128° |
| 2026-05-03 22:55 | 25.73564 | -100.02854 | 4260 ft | 150 kts | 124° |
| 2026-05-03 22:55 | 25.73001 | -100.01871 | 4499 ft | 153 kts | 123° |
| 2026-05-03 22:56 | 25.72442 | -100.00859 | 4744 ft | 154 kts | 121° |
| 2026-05-03 22:56 | 25.72252 | -99.99694 | 4979 ft | 161 kts | 87° |
| 2026-05-03 22:56 | 25.72433 | -99.98462 | 5197 ft | 163 kts | 86° |
| 2026-05-03 22:56 | 25.72557 | -99.97202 | 5367 ft | 165 kts | 88° |
| 2026-05-03 22:57 | 25.72656 | -99.95920 | 5538 ft | 168 kts | 89° |
| 2026-05-03 22:57 | 25.72750 | -99.94625 | 5716 ft | 169 kts | 89° |
| 2026-05-03 22:57 | 25.72844 | -99.93314 | 5894 ft | 172 kts | 89° |
| 2026-05-03 22:57 | 25.72941 | -99.91982 | 6061 ft | 174 kts | 89° |
| 2026-05-03 22:58 | 25.73038 | -99.90658 | 6237 ft | 174 kts | 89° |
| 2026-05-03 22:58 | 25.73134 | -99.89314 | 6407 ft | 175 kts | 89° |
| 2026-05-03 22:58 | 25.73232 | -99.87963 | 6575 ft | 176 kts | 89° |
| 2026-05-03 22:58 | 25.73330 | -99.86608 | 6732 ft | 177 kts | 88° |
| 2026-05-03 22:59 | 25.73427 | -99.85250 | 6895 ft | 176 kts | 90° |
| 2026-05-03 22:59 | 25.73517 | -99.83893 | 7052 ft | 177 kts | 88° |
| 2026-05-03 22:59 | 25.73621 | -99.82526 | 7211 ft | 178 kts | 89° |
| 2026-05-03 22:59 | 25.73718 | -99.81160 | 7370 ft | 179 kts | 88° |
| 2026-05-03 23:00 | 25.73817 | -99.79786 | 7535 ft | 180 kts | 88° |
| 2026-05-03 23:00 | 25.73915 | -99.78419 | 7693 ft | 180 kts | 87° |
| 2026-05-03 23:00 | 25.74013 | -99.77033 | 7843 ft | 181 kts | 88° |
| 2026-05-03 23:00 | 25.74114 | -99.75627 | 7962 ft | 184 kts | 88° |
| 2026-05-03 23:01 | 25.74215 | -99.74203 | 8084 ft | 187 kts | 87° |
| 2026-05-03 23:01 | 25.74317 | -99.72753 | 8205 ft | 189 kts | 87° |
| 2026-05-03 23:01 | 25.74423 | -99.71290 | 8324 ft | 192 kts | 87° |
| 2026-05-03 23:01 | 25.74529 | -99.69809 | 8443 ft | 193 kts | 87° |
| 2026-05-03 23:02 | 25.74632 | -99.68324 | 8567 ft | 194 kts | 87° |
| 2026-05-03 23:02 | 25.74737 | -99.66836 | 8690 ft | 196 kts | 87° |
| 2026-05-03 23:02 | 25.74843 | -99.65326 | 8815 ft | 196 kts | 86° |
| 2026-05-03 23:02 | 25.74951 | -99.63818 | 8938 ft | 197 kts | 86° |
| 2026-05-03 23:03 | 25.75058 | -99.62295 | 9012 ft | 200 kts | 86° |
| 2026-05-03 23:03 | 25.75167 | -99.60735 | 9012 ft | 205 kts | 87° |
| 2026-05-03 23:03 | 25.75279 | -99.59147 | 9018 ft | 207 kts | 86° |
| 2026-05-03 23:03 | 25.75391 | -99.57546 | 9021 ft | 209 kts | 86° |
| 2026-05-03 23:04 | 25.75505 | -99.55936 | 9021 ft | 210 kts | 86° |
| 2026-05-03 23:04 | 25.75618 | -99.54319 | 9021 ft | 210 kts | 86° |
| 2026-05-03 23:04 | 25.75730 | -99.52704 | 9024 ft | 210 kts | 86° |
| 2026-05-03 23:04 | 25.75842 | -99.51088 | 9023 ft | 210 kts | 86° |
| 2026-05-03 23:05 | 25.75954 | -99.49475 | 9017 ft | 210 kts | 86° |
| 2026-05-03 23:05 | 25.76065 | -99.47884 | 9019 ft | 209 kts | 86° |
| 2026-05-03 23:05 | 25.76177 | -99.46272 | 9018 ft | 209 kts | 86° |
| 2026-05-03 23:05 | 25.76288 | -99.44661 | 9021 ft | 209 kts | 86° |
| 2026-05-03 23:06 | 25.76399 | -99.43052 | 9018 ft | 209 kts | 87° |
| 2026-05-03 23:06 | 25.76510 | -99.41439 | 9019 ft | 209 kts | 86° |
| 2026-05-03 23:06 | 25.76622 | -99.39821 | 9017 ft | 210 kts | 86° |
| 2026-05-03 23:06 | 25.76731 | -99.38210 | 9021 ft | 210 kts | 86° |
| 2026-05-03 23:07 | 25.76847 | -99.36590 | 9017 ft | 210 kts | 83° |
| 2026-05-03 23:07 | 25.77229 | -99.35023 | 9012 ft | 211 kts | 71° |
| 2026-05-03 23:07 | 25.77694 | -99.33491 | 7925 ft | 219 kts | 75° |
| 2026-05-03 23:07 | 25.77930 | -99.32087 | 5146 ft | 174 kts | 121° |
| 2026-05-03 23:08 | 25.77932 | -99.30594 | 2908 ft | 204 kts | 78° |
| 2026-05-03 23:08 | 25.78227 | -99.29098 | 1906 ft | 191 kts | 82° |
| 2026-05-03 23:08 | 25.78544 | -99.27709 | 1193 ft | 176 kts | 76° |
| 2026-05-03 23:08 | 25.78884 | -99.26498 | 890 ft | 157 kts | 76° |
| 2026-05-03 23:09 | 25.79240 | -99.25421 | 664 ft | 135 kts | 59° |
| 2026-05-03 23:09 | 25.79400 | -99.24648 | 749 ft | 102 kts | 143° |
| 2026-05-03 23:09 | 25.78889 | -99.24861 | 683 ft | 87 kts | 264° |
| 2026-05-03 23:09 | 25.79301 | -99.25277 | 478 ft | 86 kts | 347° |
| 2026-05-03 23:10 | 25.79791 | -99.25442 | 460 ft | 59 kts | 353° |
| 2026-05-03 23:10 | 25.79974 | -99.25280 | 466 ft | 25 kts | 140° |
| 2026-05-03 23:10 | 25.79866 | -99.25185 | 466 ft | 27 kts | 146° |